Monday, April 23, 2018, 1:31 AM GMT
Back to Local

CWNE, North Point, Prince Edward Island

Location: , , Canada Lat: 47.083
Local Time: 1:31 AM GMT ( 1:31 GMT) Lon: -64
Time Zone: GMT Elev: 49 ft

Show me the last for .
Show Coded

Time T Td Feel RH Dir Speed Gust Alt SLP Vis Weather Sky Remarks
2018-04-23 01:00 35 30 29 81 230° 8 - - 30.20 0 None
2018-04-23 00:00 32 24 25 71 190° 8 - - 30.17 0 None
2018-04-22 23:00 35 26 29 68 170° 7 - - 30.16 0 None
2018-04-22 22:00 37 23 30 57 150° 9 - - 30.16 0 None
2018-04-22 21:00 38 26 31 63 130° 9 - - 30.16 0 None
2018-04-22 20:00 38 23 35 53 120° 5 - - 30.16 0 None
2018-04-22 19:00 41 21 - 44 40° 1 - - 30.16 0 None
2018-04-22 18:00 40 26 - 56 340° 2 - - 30.16 0 None
2018-04-22 17:00 37 27 33 67 320° 5 - - 30.16 0 None
2018-04-22 16:00 37 30 32 74 310° 7 - - 30.16 0 None
2018-04-22 15:00 36 30 29 77 310° 10 - - 30.16 0 None
2018-04-22 14:00 36 29 28 77 320° 10 - - 30.15 0 None
2018-04-22 13:00 35 29 27 76 320° 10 - - 30.13 0 None
2018-04-22 12:00 35 28 27 74 320° 12 - - 30.12 0 None
2018-04-22 11:00 34 27 26 75 320° 12 - - 30.11 0 None
2018-04-22 10:00 34 29 25 82 330° 13 - - 30.09 0 None
2018-04-22 09:00 33 28 27 80 250° 7 - - 30.08 0 None
2018-04-22 08:00 33 29 28 82 250° 6 - - 30.07 0 None
2018-04-22 07:00 34 28 29 78 250° 6 - - 30.07 0 None
2018-04-22 06:00 34 29 27 84 240° 8 - - 30.06 0 None
2018-04-22 05:00 34 29 29 79 240° 6 - - 30.07 0 None
2018-04-22 04:00 34 30 28 85 240° 7 - - 30.07 0 None
2018-04-22 03:00 35 29 31 80 240° 5 - - 30.07 0 None
2018-04-22 02:00 35 27 29 72 220° 8 - - 30.07 0 None

Support USWX by starting your Amazon purchase here.